Time,TemperatureF,DewpointF,PressureIn,WindDirection,WindDirectionDegrees,WindSpeedMPH,WindSpeedGustMPH,Humidity,HourlyPrecipIn,Conditions,Clouds,dailyrainin,SolarRadiationWatts/m^2,SoftwareType,DateUTC
2013-07-29 00:06:00,67.1,32.9,29.41,North,-999,-999.0,-999.0,5,0.00,,,-99.99,0.0,Linux-Irox,2013-07-29 07:06:00,
2013-07-29 00:16:00,66.6,32.4,29.41,North,-999,-999.0,-999.0,5,0.00,,,-99.99,0.0,Linux-Irox,2013-07-29 07:16:00,
2013-07-29 00:26:00,66.2,32.0,29.42,North,-999,-999.0,-999.0,5,0.00,,,-99.99,0.0,Linux-Irox,2013-07-29 07:26:00,
2013-07-29 00:36:00,66.0,31.8,29.42,North,-999,-999.0,-999.0,5,0.00,,,-99.99,0.0,Linux-Irox,2013-07-29 07:36:00,
2013-07-29 00:46:00,66.0,31.8,29.42,North,-999,-999.0,-999.0,5,0.00,,,-99.99,0.0,Linux-Irox,2013-07-29 07:46:00,
2013-07-29 00:56:00,65.7,31.5,29.42,North,-999,-999.0,-999.0,5,0.00,,,-99.99,0.0,Linux-Irox,2013-07-29 07:56:00,
2013-07-29 01:06:00,65.7,31.5,29.43,North,-999,-999.0,-999.0,5,0.00,,,-99.99,0.0,Linux-Irox,2013-07-29 08:06:00,
2013-07-29 01:16:00,65.5,31.3,29.43,North,-999,-999.0,-999.0,5,0.00,,,-99.99,0.0,Linux-Irox,2013-07-29 08:16:00,
2013-07-29 01:26:00,65.5,31.3,29.42,North,-999,-999.0,-999.0,5,0.00,,,-99.99,0.0,Linux-Irox,2013-07-29 08:26:00,
2013-07-29 01:36:00,65.3,31.1,29.42,North,-999,-999.0,-999.0,5,0.00,,,-99.99,0.0,Linux-Irox,2013-07-29 08:36:00,
2013-07-29 01:46:00,65.5,31.3,29.42,North,-999,-999.0,-999.0,5,0.00,,,-99.99,0.0,Linux-Irox,2013-07-29 08:46:00,
2013-07-29 01:56:00,65.1,30.9,29.42,North,-999,-999.0,-999.0,5,0.00,,,-99.99,0.0,Linux-Irox,2013-07-29 08:56:00,
2013-07-29 02:06:00,64.9,30.7,29.43,North,-999,-999.0,-999.0,5,0.00,,,-99.99,0.0,Linux-Irox,2013-07-29 09:06:00,
2013-07-29 02:16:00,65.5,31.3,29.43,North,-999,-999.0,-999.0,5,0.00,,,-99.99,0.0,Linux-Irox,2013-07-29 09:16:00,
2013-07-29 02:26:00,65.8,31.6,29.41,North,-999,-999.0,-999.0,5,0.00,,,-99.99,0.0,Linux-Irox,2013-07-29 09:26:00,
2013-07-29 02:36:00,66.0,31.8,29.41,North,-999,-999.0,-999.0,5,0.00,,,-99.99,0.0,Linux-Irox,2013-07-29 09:36:00,
2013-07-29 02:46:00,65.1,30.9,29.40,North,-999,-999.0,-999.0,5,0.00,,,-99.99,0.0,Linux-Irox,2013-07-29 09:46:00,
2013-07-29 02:56:00,64.6,30.4,29.40,North,-999,-999.0,-999.0,5,0.00,,,-99.99,0.0,Linux-Irox,2013-07-29 09:56:00,
2013-07-29 03:06:00,64.6,30.4,29.39,North,-999,-999.0,-999.0,5,0.00,,,-99.99,0.0,Linux-Irox,2013-07-29 10:06:00,
2013-07-29 03:16:00,65.8,31.6,29.39,North,-999,-999.0,-999.0,5,0.00,,,-99.99,0.0,Linux-Irox,2013-07-29 10:16:00,
2013-07-29 03:26:00,66.6,32.4,29.39,North,-999,-999.0,-999.0,5,0.00,,,-99.99,0.0,Linux-Irox,2013-07-29 10:26:00,
2013-07-29 03:36:00,66.6,32.4,29.39,North,-999,-999.0,-999.0,5,0.00,,,-99.99,0.0,Linux-Irox,2013-07-29 10:36:00,
2013-07-29 03:46:00,66.6,32.4,29.39,North,-999,-999.0,-999.0,5,0.00,,,-99.99,0.0,Linux-Irox,2013-07-29 10:46:00,
2013-07-29 03:56:00,66.7,32.5,29.39,North,-999,-999.0,-999.0,5,0.00,,,-99.99,0.0,Linux-Irox,2013-07-29 10:56:00,
2013-07-29 04:06:00,66.9,32.7,29.39,North,-999,-999.0,-999.0,5,0.00,,,-99.99,0.0,Linux-Irox,2013-07-29 11:06:00,
2013-07-29 04:16:00,65.8,31.6,29.39,North,-999,-999.0,-999.0,5,0.00,,,-99.99,0.0,Linux-Irox,2013-07-29 11:16:00,
2013-07-29 04:26:00,65.3,31.1,29.40,North,-999,-999.0,-999.0,5,0.00,,,-99.99,0.0,Linux-Irox,2013-07-29 11:26:00,
2013-07-29 04:36:00,64.6,30.4,29.40,North,-999,-999.0,-999.0,5,0.00,,,-99.99,0.0,Linux-Irox,2013-07-29 11:36:00,
2013-07-29 04:46:00,64.4,30.2,29.40,North,-999,-999.0,-999.0,5,0.00,,,-99.99,0.0,Linux-Irox,2013-07-29 11:46:00,
2013-07-29 04:56:00,63.3,29.1,29.40,North,-999,-999.0,-999.0,5,0.00,,,-99.99,0.0,Linux-Irox,2013-07-29 11:56:00,
2013-07-29 05:06:00,62.8,28.6,29.41,North,-999,-999.0,-999.0,5,0.00,,,-99.99,0.0,Linux-Irox,2013-07-29 12:06:00,
2013-07-29 05:16:00,62.2,28.0,29.41,North,-999,-999.0,-999.0,5,0.00,,,-99.99,0.0,Linux-Irox,2013-07-29 12:16:00,
2013-07-29 05:26:00,61.5,27.3,29.41,North,-999,-999.0,-999.0,5,0.00,,,-99.99,0.0,Linux-Irox,2013-07-29 12:26:00,
2013-07-29 05:36:00,61.2,27.0,29.41,North,-999,-999.0,-999.0,5,0.00,,,-99.99,0.0,Linux-Irox,2013-07-29 12:36:00,
2013-07-29 05:46:00,60.6,26.4,29.43,North,-999,-999.0,-999.0,5,0.00,,,-99.99,0.0,Linux-Irox,2013-07-29 12:46:00,
2013-07-29 05:56:00,60.4,26.2,29.43,North,-999,-999.0,-999.0,5,0.00,,,-99.99,0.0,Linux-Irox,2013-07-29 12:56:00,
2013-07-29 06:06:00,60.3,26.1,29.42,North,-999,-999.0,-999.0,5,0.00,,,-99.99,0.0,Linux-Irox,2013-07-29 13:06:00,
2013-07-29 06:16:00,60.3,26.1,29.42,North,-999,-999.0,-999.0,5,0.00,,,-99.99,0.0,Linux-Irox,2013-07-29 13:16:00,
2013-07-29 06:26:00,60.3,26.1,29.42,North,-999,-999.0,-999.0,5,0.00,,,-99.99,0.0,Linux-Irox,2013-07-29 13:26:00,
2013-07-29 06:36:00,60.3,26.1,29.42,North,-999,-999.0,-999.0,5,0.00,,,-99.99,0.0,Linux-Irox,2013-07-29 13:36:00,
2013-07-29 06:46:00,60.6,26.4,29.43,North,-999,-999.0,-999.0,5,0.00,,,-99.99,0.0,Linux-Irox,2013-07-29 13:46:00,
2013-07-29 06:56:00,61.2,27.0,29.43,North,-999,-999.0,-999.0,5,0.00,,,-99.99,0.0,Linux-Irox,2013-07-29 13:56:00,
2013-07-29 07:06:00,62.4,28.2,29.44,North,-999,-999.0,-999.0,5,0.00,,,-99.99,0.0,Linux-Irox,2013-07-29 14:06:00,
2013-07-29 07:16:00,71.6,37.4,29.44,North,-999,-999.0,-999.0,5,0.00,,,-99.99,0.0,Linux-Irox,2013-07-29 14:16:00,
2013-07-29 07:26:00,76.5,42.3,29.44,North,-999,-999.0,-999.0,5,0.00,,,-99.99,0.0,Linux-Irox,2013-07-29 14:26:00,
2013-07-29 07:31:00,78.6,44.4,29.44,North,-999,-999.0,-999.0,5,0.00,,,-99.99,0.0,Linux-Irox,2013-07-29 14:31:00,
2013-07-29 07:36:00,78.3,44.1,29.44,North,-999,-999.0,-999.0,5,0.00,,,-99.99,0.0,Linux-Irox,2013-07-29 14:36:00,
2013-07-29 07:46:00,81.9,47.7,29.45,North,-999,-999.0,-999.0,5,0.00,,,-99.99,0.0,Linux-Irox,2013-07-29 14:46:00,
2013-07-29 07:56:00,81.5,47.3,29.45,North,-999,-999.0,-999.0,5,0.00,,,-99.99,0.0,Linux-Irox,2013-07-29 14:56:00,
2013-07-29 08:01:00,81.0,46.8,29.45,North,-999,-999.0,-999.0,5,0.00,,,-99.99,0.0,Linux-Irox,2013-07-29 15:01:00,
2013-07-29 08:06:00,80.8,46.6,29.45,North,-999,-999.0,-999.0,5,0.00,,,-99.99,0.0,Linux-Irox,2013-07-29 15:06:00,
2013-07-29 08:16:00,80.8,46.6,29.45,North,-999,-999.0,-999.0,5,0.00,,,-99.99,0.0,Linux-Irox,2013-07-29 15:16:00,
2013-07-29 08:17:00,80.8,46.6,29.45,North,-999,-999.0,-999.0,5,0.00,,,-99.99,0.0,Linux-Irox,2013-07-29 15:17:00,
2013-07-29 08:26:00,82.2,48.0,29.45,North,-999,-999.0,-999.0,5,0.00,,,-99.99,0.0,Linux-Irox,2013-07-29 15:26:00,
2013-07-29 08:31:00,82.8,48.6,29.45,North,-999,-999.0,-999.0,5,0.00,,,-99.99,0.0,Linux-Irox,2013-07-29 15:31:00,
2013-07-29 08:36:00,83.7,49.5,29.45,North,-999,-999.0,-999.0,5,0.00,,,-99.99,0.0,Linux-Irox,2013-07-29 15:36:00,
2013-07-29 08:46:00,83.7,49.5,29.46,North,-999,-999.0,-999.0,5,0.00,,,-99.99,0.0,Linux-Irox,2013-07-29 15:46:00,
2013-07-29 08:56:00,84.6,50.4,29.46,North,-999,-999.0,-999.0,5,0.00,,,-99.99,0.0,Linux-Irox,2013-07-29 15:56:00,
2013-07-29 09:06:00,85.5,51.3,29.46,North,-999,-999.0,-999.0,5,0.00,,,-99.99,0.0,Linux-Irox,2013-07-29 16:06:00,
2013-07-29 09:16:00,85.8,51.6,29.46,North,-999,-999.0,-999.0,5,0.00,,,-99.99,0.0,Linux-Irox,2013-07-29 16:16:00,
2013-07-29 09:17:00,85.8,51.6,29.46,North,-999,-999.0,-999.0,5,0.00,,,-99.99,0.0,Linux-Irox,2013-07-29 16:17:00,
2013-07-29 09:26:00,86.9,52.7,29.47,North,-999,-999.0,-999.0,5,0.00,,,-99.99,0.0,Linux-Irox,2013-07-29 16:26:00,
2013-07-29 09:31:00,87.3,53.1,29.47,North,-999,-999.0,-999.0,5,0.00,,,-99.99,0.0,Linux-Irox,2013-07-29 16:31:00,
2013-07-29 09:36:00,86.7,52.5,29.47,North,-999,-999.0,-999.0,5,0.00,,,-99.99,0.0,Linux-Irox,2013-07-29 16:36:00,
2013-07-29 09:46:00,86.7,52.5,29.47,North,-999,-999.0,-999.0,5,0.00,,,-99.99,0.0,Linux-Irox,2013-07-29 16:46:00,
2013-07-29 09:47:00,86.7,52.5,29.47,North,-999,-999.0,-999.0,5,0.00,,,-99.99,0.0,Linux-Irox,2013-07-29 16:47:00,
2013-07-29 09:56:00,86.7,52.5,29.47,North,-999,-999.0,-999.0,5,0.00,,,-99.99,0.0,Linux-Irox,2013-07-29 16:56:00,
2013-07-29 10:01:00,86.9,52.7,29.47,North,-999,-999.0,-999.0,5,0.00,,,-99.99,0.0,Linux-Irox,2013-07-29 17:01:00,
2013-07-29 10:06:00,87.1,52.9,29.47,North,-999,-999.0,-999.0,5,0.00,,,-99.99,0.0,Linux-Irox,2013-07-29 17:06:00,
2013-07-29 10:16:00,86.9,52.7,29.47,North,-999,-999.0,-999.0,5,0.00,,,-99.99,0.0,Linux-Irox,2013-07-29 17:16:00,
2013-07-29 10:26:00,87.8,53.6,29.48,North,-999,-999.0,-999.0,5,0.00,,,-99.99,0.0,Linux-Irox,2013-07-29 17:26:00,
2013-07-29 10:36:00,87.8,53.6,29.48,North,-999,-999.0,-999.0,5,0.00,,,-99.99,0.0,Linux-Irox,2013-07-29 17:36:00,
2013-07-29 10:46:00,88.2,54.0,29.48,North,-999,-999.0,-999.0,5,0.00,,,-99.99,0.0,Linux-Irox,2013-07-29 17:46:00,
2013-07-29 10:47:00,88.2,54.0,29.48,North,-999,-999.0,-999.0,5,0.00,,,-99.99,0.0,Linux-Irox,2013-07-29 17:47:00,
2013-07-29 10:56:00,87.6,53.4,29.48,North,-999,-999.0,-999.0,5,0.00,,,-99.99,0.0,Linux-Irox,2013-07-29 17:56:00,
2013-07-29 11:06:00,87.6,53.4,29.49,North,-999,-999.0,-999.0,5,0.00,,,-99.99,0.0,Linux-Irox,2013-07-29 18:06:00,
2013-07-29 11:16:00,87.6,53.4,29.49,North,-999,-999.0,-999.0,5,0.00,,,-99.99,0.0,Linux-Irox,2013-07-29 18:16:00,
2013-07-29 11:26:00,86.9,52.7,29.49,North,-999,-999.0,-999.0,5,0.00,,,-99.99,0.0,Linux-Irox,2013-07-29 18:26:00,
2013-07-29 11:31:00,88.2,54.0,29.49,North,-999,-999.0,-999.0,5,0.00,,,-99.99,0.0,Linux-Irox,2013-07-29 18:31:00,
2013-07-29 11:36:00,88.0,53.8,29.49,North,-999,-999.0,-999.0,5,0.00,,,-99.99,0.0,Linux-Irox,2013-07-29 18:36:00,
2013-07-29 11:46:00,87.3,53.1,29.49,North,-999,-999.0,-999.0,5,0.00,,,-99.99,0.0,Linux-Irox,2013-07-29 18:46:00,
2013-07-29 11:56:00,87.3,53.1,29.49,North,-999,-999.0,-999.0,5,0.00,,,-99.99,0.0,Linux-Irox,2013-07-29 18:56:00,
2013-07-29 12:01:00,87.1,52.9,29.50,North,-999,-999.0,-999.0,5,0.00,,,-99.99,0.0,Linux-Irox,2013-07-29 19:01:00,
2013-07-29 12:06:00,87.4,53.2,29.50,North,-999,-999.0,-999.0,5,0.00,,,-99.99,0.0,Linux-Irox,2013-07-29 19:06:00,
2013-07-29 12:16:00,86.7,52.5,29.50,North,-999,-999.0,-999.0,5,0.00,,,-99.99,0.0,Linux-Irox,2013-07-29 19:16:00,
2013-07-29 12:26:00,86.2,52.0,29.50,North,-999,-999.0,-999.0,5,0.00,,,-99.99,0.0,Linux-Irox,2013-07-29 19:26:00,
2013-07-29 12:32:00,87.1,52.9,29.50,North,-999,-999.0,-999.0,5,0.00,,,-99.99,0.0,Linux-Irox,2013-07-29 19:32:00,
2013-07-29 12:36:00,85.8,51.6,29.50,North,-999,-999.0,-999.0,5,0.00,,,-99.99,0.0,Linux-Irox,2013-07-29 19:36:00,
2013-07-29 12:46:00,85.8,51.6,29.50,North,-999,-999.0,-999.0,5,0.00,,,-99.99,0.0,Linux-Irox,2013-07-29 19:46:00,
2013-07-29 12:47:00,85.8,51.6,29.50,North,-999,-999.0,-999.0,5,0.00,,,-99.99,0.0,Linux-Irox,2013-07-29 19:47:00,
2013-07-29 12:56:00,85.8,51.6,29.50,North,-999,-999.0,-999.0,5,0.00,,,-99.99,0.0,Linux-Irox,2013-07-29 19:56:00,
2013-07-29 13:06:00,86.2,52.0,29.50,North,-999,-999.0,-999.0,5,0.00,,,-99.99,0.0,Linux-Irox,2013-07-29 20:06:00,
2013-07-29 13:16:00,86.0,51.8,29.50,North,-999,-999.0,-999.0,5,0.00,,,-99.99,0.0,Linux-Irox,2013-07-29 20:16:00,
2013-07-29 13:26:00,85.8,51.6,29.50,North,-999,-999.0,-999.0,5,0.00,,,-99.99,0.0,Linux-Irox,2013-07-29 20:26:00,
2013-07-29 13:32:00,85.6,51.4,29.50,North,-999,-999.0,-999.0,5,0.00,,,-99.99,0.0,Linux-Irox,2013-07-29 20:32:00,
2013-07-29 13:36:00,86.2,52.0,29.50,North,-999,-999.0,-999.0,5,0.00,,,-99.99,0.0,Linux-Irox,2013-07-29 20:36:00,
2013-07-29 13:46:00,85.6,51.4,29.50,North,-999,-999.0,-999.0,5,0.00,,,-99.99,0.0,Linux-Irox,2013-07-29 20:46:00,
2013-07-29 13:56:00,85.8,51.6,29.50,North,-999,-999.0,-999.0,5,0.00,,,-99.99,0.0,Linux-Irox,2013-07-29 20:56:00,
2013-07-29 14:01:00,85.8,51.6,29.50,North,-999,-999.0,-999.0,5,0.00,,,-99.99,0.0,Linux-Irox,2013-07-29 21:01:00,
2013-07-29 14:06:00,86.4,52.2,29.50,North,-999,-999.0,-999.0,5,0.00,,,-99.99,0.0,Linux-Irox,2013-07-29 21:06:00,
2013-07-29 14:16:00,87.3,53.1,29.50,North,-999,-999.0,-999.0,5,0.00,,,-99.99,0.0,Linux-Irox,2013-07-29 21:16:00,
2013-07-29 14:17:00,87.3,53.1,29.50,North,-999,-999.0,-999.0,5,0.00,,,-99.99,0.0,Linux-Irox,2013-07-29 21:17:00,
2013-07-29 14:26:00,86.9,52.7,29.50,North,-999,-999.0,-999.0,5,0.00,,,-99.99,0.0,Linux-Irox,2013-07-29 21:26:00,
2013-07-29 14:36:00,87.4,53.2,29.50,North,-999,-999.0,-999.0,5,0.00,,,-99.99,0.0,Linux-Irox,2013-07-29 21:36:00,
2013-07-29 14:46:00,87.4,53.2,29.50,North,-999,-999.0,-999.0,5,0.00,,,-99.99,0.0,Linux-Irox,2013-07-29 21:46:00,
2013-07-29 14:56:00,88.3,54.1,29.50,North,-999,-999.0,-999.0,5,0.00,,,-99.99,0.0,Linux-Irox,2013-07-29 21:56:00,
2013-07-29 15:06:00,88.2,54.0,29.50,North,-999,-999.0,-999.0,5,0.00,,,-99.99,0.0,Linux-Irox,2013-07-29 22:06:00,
2013-07-29 15:16:00,88.0,53.8,29.50,North,-999,-999.0,-999.0,5,0.00,,,-99.99,0.0,Linux-Irox,2013-07-29 22:16:00,
2013-07-29 15:26:00,88.3,54.1,29.50,North,-999,-999.0,-999.0,5,0.00,,,-99.99,0.0,Linux-Irox,2013-07-29 22:26:00,
2013-07-29 15:31:00,88.5,54.3,29.50,North,-999,-999.0,-999.0,5,0.00,,,-99.99,0.0,Linux-Irox,2013-07-29 22:31:00,
2013-07-29 15:36:00,88.7,54.5,29.50,North,-999,-999.0,-999.0,5,0.00,,,-99.99,0.0,Linux-Irox,2013-07-29 22:36:00,
2013-07-29 15:46:00,88.3,54.1,29.49,North,-999,-999.0,-999.0,5,0.00,,,-99.99,0.0,Linux-Irox,2013-07-29 22:46:00,
2013-07-29 15:56:00,88.3,54.1,29.49,North,-999,-999.0,-999.0,5,0.00,,,-99.99,0.0,Linux-Irox,2013-07-29 22:56:00,
2013-07-29 16:02:00,88.0,53.8,29.49,North,-999,-999.0,-999.0,5,0.00,,,-99.99,0.0,Linux-Irox,2013-07-29 23:02:00,
2013-07-29 16:06:00,87.6,53.4,29.49,North,-999,-999.0,-999.0,5,0.00,,,-99.99,0.0,Linux-Irox,2013-07-29 23:06:00,
2013-07-29 16:16:00,86.9,52.7,29.49,North,-999,-999.0,-999.0,5,0.00,,,-99.99,0.0,Linux-Irox,2013-07-29 23:16:00,
2013-07-29 16:26:00,87.1,52.9,29.49,North,-999,-999.0,-999.0,5,0.00,,,-99.99,0.0,Linux-Irox,2013-07-29 23:26:00,
2013-07-29 16:36:00,86.0,51.8,29.49,North,-999,-999.0,-999.0,5,0.00,,,-99.99,0.0,Linux-Irox,2013-07-29 23:36:00,
2013-07-29 16:46:00,86.0,51.8,29.48,North,-999,-999.0,-999.0,5,0.00,,,-99.99,0.0,Linux-Irox,2013-07-29 23:46:00,
2013-07-29 16:56:00,85.8,51.6,29.48,North,-999,-999.0,-999.0,5,0.00,,,-99.99,0.0,Linux-Irox,2013-07-29 23:56:00,
2013-07-29 17:01:00,85.8,51.6,29.49,North,-999,-999.0,-999.0,5,0.00,,,-99.99,0.0,Linux-Irox,2013-07-30 00:01:00,
2013-07-29 17:06:00,85.1,50.9,29.49,North,-999,-999.0,-999.0,5,0.00,,,-99.99,0.0,Linux-Irox,2013-07-30 00:06:00,
2013-07-29 17:16:00,85.3,51.1,29.49,North,-999,-999.0,-999.0,5,0.00,,,-99.99,0.0,Linux-Irox,2013-07-30 00:16:00,
2013-07-29 17:26:00,84.4,50.2,29.48,North,-999,-999.0,-999.0,5,0.00,,,-99.99,0.0,Linux-Irox,2013-07-30 00:26:00,
2013-07-29 17:31:00,84.2,50.0,29.48,North,-999,-999.0,-999.0,5,0.00,,,-99.99,0.0,Linux-Irox,2013-07-30 00:31:00,
2013-07-29 17:36:00,83.8,49.6,29.48,North,-999,-999.0,-999.0,5,0.00,,,-99.99,0.0,Linux-Irox,2013-07-30 00:36:00,
2013-07-29 17:46:00,83.3,49.1,29.49,North,-999,-999.0,-999.0,5,0.00,,,-99.99,0.0,Linux-Irox,2013-07-30 00:46:00,
2013-07-29 17:56:00,82.9,48.7,29.49,North,-999,-999.0,-999.0,5,0.00,,,-99.99,0.0,Linux-Irox,2013-07-30 00:56:00,
2013-07-29 18:01:00,82.8,48.6,29.48,North,-999,-999.0,-999.0,5,0.00,,,-99.99,0.0,Linux-Irox,2013-07-30 01:01:00,
2013-07-29 18:06:00,82.8,48.6,29.48,North,-999,-999.0,-999.0,5,0.00,,,-99.99,0.0,Linux-Irox,2013-07-30 01:06:00,
2013-07-29 18:16:00,82.0,47.8,29.48,North,-999,-999.0,-999.0,5,0.00,,,-99.99,0.0,Linux-Irox,2013-07-30 01:16:00,
2013-07-29 18:26:00,81.7,47.5,29.48,North,-999,-999.0,-999.0,5,0.00,,,-99.99,0.0,Linux-Irox,2013-07-30 01:26:00,
2013-07-29 18:31:00,81.7,47.5,29.48,North,-999,-999.0,-999.0,5,0.00,,,-99.99,0.0,Linux-Irox,2013-07-30 01:31:00,
2013-07-29 18:36:00,81.3,47.1,29.48,North,-999,-999.0,-999.0,5,0.00,,,-99.99,0.0,Linux-Irox,2013-07-30 01:36:00,
2013-07-29 18:46:00,80.8,46.6,29.48,North,-999,-999.0,-999.0,5,0.00,,,-99.99,0.0,Linux-Irox,2013-07-30 01:46:00,
2013-07-29 18:56:00,79.9,45.7,29.48,North,-999,-999.0,-999.0,5,0.00,,,-99.99,0.0,Linux-Irox,2013-07-30 01:56:00,
2013-07-29 19:01:00,79.7,45.5,29.47,North,-999,-999.0,-999.0,5,0.00,,,-99.99,0.0,Linux-Irox,2013-07-30 02:01:00,
2013-07-29 19:06:00,79.0,44.8,29.47,North,-999,-999.0,-999.0,5,0.00,,,-99.99,0.0,Linux-Irox,2013-07-30 02:06:00,
2013-07-29 19:16:00,77.9,43.7,29.47,North,-999,-999.0,-999.0,5,0.00,,,-99.99,0.0,Linux-Irox,2013-07-30 02:16:00,
2013-07-29 19:26:00,77.0,42.8,29.49,North,-999,-999.0,-999.0,5,0.00,,,-99.99,0.0,Linux-Irox,2013-07-30 02:26:00,
2013-07-29 19:31:00,76.6,42.4,29.49,North,-999,-999.0,-999.0,5,0.00,,,-99.99,0.0,Linux-Irox,2013-07-30 02:31:00,
2013-07-29 19:36:00,75.9,41.7,29.49,North,-999,-999.0,-999.0,5,0.00,,,-99.99,0.0,Linux-Irox,2013-07-30 02:36:00,
2013-07-29 19:46:00,75.0,40.8,29.50,North,-999,-999.0,-999.0,5,0.00,,,-99.99,0.0,Linux-Irox,2013-07-30 02:46:00,
2013-07-29 19:56:00,73.9,39.7,29.50,North,-999,-999.0,-999.0,5,0.00,,,-99.99,0.0,Linux-Irox,2013-07-30 02:56:00,
2013-07-29 20:01:00,73.6,39.4,29.52,North,-999,-999.0,-999.0,5,0.00,,,-99.99,0.0,Linux-Irox,2013-07-30 03:01:00,
2013-07-29 20:06:00,73.0,38.8,29.52,North,-999,-999.0,-999.0,5,0.00,,,-99.99,0.0,Linux-Irox,2013-07-30 03:06:00,
2013-07-29 20:16:00,72.1,37.9,29.52,North,-999,-999.0,-999.0,5,0.00,,,-99.99,0.0,Linux-Irox,2013-07-30 03:16:00,
2013-07-29 20:26:00,71.2,37.0,29.53,North,-999,-999.0,-999.0,5,0.00,,,-99.99,0.0,Linux-Irox,2013-07-30 03:26:00,
2013-07-29 20:36:00,70.3,36.1,29.53,North,-999,-999.0,-999.0,5,0.00,,,-99.99,0.0,Linux-Irox,2013-07-30 03:36:00,
2013-07-29 20:46:00,69.4,35.2,29.53,North,-999,-999.0,-999.0,5,0.00,,,-99.99,0.0,Linux-Irox,2013-07-30 03:46:00,
2013-07-29 20:56:00,68.9,34.7,29.53,North,-999,-999.0,-999.0,5,0.00,,,-99.99,0.0,Linux-Irox,2013-07-30 03:56:00,
2013-07-29 21:06:00,68.2,34.0,29.54,North,-999,-999.0,-999.0,5,0.00,,,-99.99,0.0,Linux-Irox,2013-07-30 04:06:00,
2013-07-29 21:16:00,67.6,33.4,29.54,North,-999,-999.0,-999.0,5,0.00,,,-99.99,0.0,Linux-Irox,2013-07-30 04:16:00,
2013-07-29 21:26:00,67.5,33.3,29.55,North,-999,-999.0,-999.0,5,0.00,,,-99.99,0.0,Linux-Irox,2013-07-30 04:26:00,
2013-07-29 21:36:00,66.9,32.7,29.55,North,-999,-999.0,-999.0,5,0.00,,,-99.99,0.0,Linux-Irox,2013-07-30 04:36:00,
2013-07-29 21:46:00,66.6,32.4,29.56,North,-999,-999.0,-999.0,5,0.00,,,-99.99,0.0,Linux-Irox,2013-07-30 04:46:00,
2013-07-29 21:56:00,66.2,32.0,29.56,North,-999,-999.0,-999.0,5,0.00,,,-99.99,0.0,Linux-Irox,2013-07-30 04:56:00,
2013-07-29 22:06:00,66.0,31.8,29.56,North,-999,-999.0,-999.0,5,0.00,,,-99.99,0.0,Linux-Irox,2013-07-30 05:06:00,
2013-07-29 22:16:00,65.5,31.3,29.56,North,-999,-999.0,-999.0,5,0.00,,,-99.99,0.0,Linux-Irox,2013-07-30 05:16:00,
2013-07-29 22:26:00,64.8,30.6,29.56,North,-999,-999.0,-999.0,5,0.00,,,-99.99,0.0,Linux-Irox,2013-07-30 05:26:00,
2013-07-29 22:36:00,64.4,30.2,29.56,North,-999,-999.0,-999.0,5,0.00,,,-99.99,0.0,Linux-Irox,2013-07-30 05:36:00,
2013-07-29 22:46:00,64.2,30.0,29.57,North,-999,-999.0,-999.0,5,0.00,,,-99.99,0.0,Linux-Irox,2013-07-30 05:46:00,
2013-07-29 22:56:00,63.7,29.5,29.57,North,-999,-999.0,-999.0,5,0.00,,,-99.99,0.0,Linux-Irox,2013-07-30 05:56:00,
2013-07-29 23:06:00,63.7,29.5,29.56,North,-999,-999.0,-999.0,5,0.00,,,-99.99,0.0,Linux-Irox,2013-07-30 06:06:00,
2013-07-29 23:16:00,63.5,29.3,29.56,North,-999,-999.0,-999.0,5,0.00,,,-99.99,0.0,Linux-Irox,2013-07-30 06:16:00,
2013-07-29 23:26:00,63.3,29.1,29.56,North,-999,-999.0,-999.0,5,0.00,,,-99.99,0.0,Linux-Irox,2013-07-30 06:26:00,
2013-07-29 23:36:00,63.1,28.9,29.56,North,-999,-999.0,-999.0,5,0.00,,,-99.99,0.0,Linux-Irox,2013-07-30 06:36:00,
2013-07-29 23:46:00,63.0,28.8,29.56,North,-999,-999.0,-999.0,5,0.00,,,-99.99,0.0,Linux-Irox,2013-07-30 06:46:00,
2013-07-29 23:56:00,62.6,28.4,29.56,North,-999,-999.0,-999.0,5,0.00,,,-99.99,0.0,Linux-Irox,2013-07-30 06:56:00,